sensor_id;sensor_type;location;lat;lon;timestamp;P1;durP1;ratioP1;P2;durP2;ratioP2
77214;SDS011;66210;53.282;9.864;2024-03-08T00:00:41;18.90;;;11.00;;
77214;SDS011;66210;53.282;9.864;2024-03-08T00:03:09;22.30;;;11.35;;
77214;SDS011;66210;53.282;9.864;2024-03-08T00:05:36;21.77;;;10.68;;
77214;SDS011;66210;53.282;9.864;2024-03-08T00:08:05;25.15;;;11.10;;
77214;SDS011;66210;53.282;9.864;2024-03-08T00:10:36;20.88;;;11.70;;
77214;SDS011;66210;53.282;9.864;2024-03-08T00:13:05;24.17;;;11.35;;
77214;SDS011;66210;53.282;9.864;2024-03-08T00:15:33;24.63;;;10.82;;
77214;SDS011;66210;53.282;9.864;2024-03-08T00:17:59;20.80;;;10.55;;
77214;SDS011;66210;53.282;9.864;2024-03-08T00:20:26;22.65;;;11.23;;
77214;SDS011;66210;53.282;9.864;2024-03-08T00:22:53;23.90;;;11.68;;
77214;SDS011;66210;53.282;9.864;2024-03-08T00:25:20;21.60;;;10.52;;
77214;SDS011;66210;53.282;9.864;2024-03-08T00:27:46;21.60;;;11.50;;
77214;SDS011;66210;53.282;9.864;2024-03-08T00:30:16;24.20;;;10.60;;
77214;SDS011;66210;53.282;9.864;2024-03-08T00:32:43;21.63;;;11.70;;
77214;SDS011;66210;53.282;9.864;2024-03-08T00:35:10;25.63;;;12.35;;
77214;SDS011;66210;53.282;9.864;2024-03-08T00:37:38;22.25;;;11.27;;
77214;SDS011;66210;53.282;9.864;2024-03-08T00:40:05;20.98;;;10.90;;
77214;SDS011;66210;53.282;9.864;2024-03-08T00:42:35;19.60;;;10.13;;
77214;SDS011;66210;53.282;9.864;2024-03-08T00:45:02;21.75;;;9.73;;
77214;SDS011;66210;53.282;9.864;2024-03-08T00:47:29;21.30;;;10.00;;
77214;SDS011;66210;53.282;9.864;2024-03-08T00:49:56;20.08;;;10.45;;
77214;SDS011;66210;53.282;9.864;2024-03-08T00:52:23;20.05;;;11.02;;
77214;SDS011;66210;53.282;9.864;2024-03-08T00:54:53;24.17;;;12.15;;
77214;SDS011;66210;53.282;9.864;2024-03-08T00:57:19;28.48;;;11.63;;
77214;SDS011;66210;53.282;9.864;2024-03-08T00:59:47;21.55;;;11.90;;
77214;SDS011;66210;53.282;9.864;2024-03-08T01:02:14;19.02;;;11.55;;
77214;SDS011;66210;53.282;9.864;2024-03-08T01:04:43;21.55;;;11.05;;
77214;SDS011;66210;53.282;9.864;2024-03-08T01:07:10;17.92;;;10.48;;
77214;SDS011;66210;53.282;9.864;2024-03-08T01:09:37;20.95;;;11.02;;
77214;SDS011;66210;53.282;9.864;2024-03-08T01:12:03;20.25;;;10.45;;
77214;SDS011;66210;53.282;9.864;2024-03-08T01:14:31;22.77;;;11.27;;
77214;SDS011;66210;53.282;9.864;2024-03-08T01:16:58;20.73;;;10.07;;
77214;SDS011;66210;53.282;9.864;2024-03-08T01:19:25;17.80;;;9.77;;
77214;SDS011;66210;53.282;9.864;2024-03-08T01:21:52;22.92;;;11.43;;
77214;SDS011;66210;53.282;9.864;2024-03-08T01:24:19;17.15;;;9.80;;
77214;SDS011;66210;53.282;9.864;2024-03-08T01:26:46;24.38;;;10.02;;
77214;SDS011;66210;53.282;9.864;2024-03-08T01:29:14;20.92;;;10.48;;
77214;SDS011;66210;53.282;9.864;2024-03-08T01:31:40;19.30;;;10.45;;
77214;SDS011;66210;53.282;9.864;2024-03-08T01:34:07;23.70;;;10.60;;
77214;SDS011;66210;53.282;9.864;2024-03-08T01:36:34;17.50;;;9.02;;
77214;SDS011;66210;53.282;9.864;2024-03-08T01:39:00;18.15;;;10.68;;
77214;SDS011;66210;53.282;9.864;2024-03-08T01:41:27;19.52;;;10.75;;
77214;SDS011;66210;53.282;9.864;2024-03-08T01:43:56;17.58;;;9.93;;
77214;SDS011;66210;53.282;9.864;2024-03-08T01:46:23;19.40;;;9.35;;
77214;SDS011;66210;53.282;9.864;2024-03-08T01:48:50;17.63;;;9.32;;
77214;SDS011;66210;53.282;9.864;2024-03-08T01:51:17;23.65;;;10.68;;
77214;SDS011;66210;53.282;9.864;2024-03-08T01:53:45;17.30;;;9.40;;
77214;SDS011;66210;53.282;9.864;2024-03-08T01:56:14;21.17;;;10.20;;
77214;SDS011;66210;53.282;9.864;2024-03-08T01:58:41;21.00;;;10.38;;
77214;SDS011;66210;53.282;9.864;2024-03-08T02:01:14;17.10;;;9.27;;
77214;SDS011;66210;53.282;9.864;2024-03-08T02:03:42;16.13;;;8.88;;
77214;SDS011;66210;53.282;9.864;2024-03-08T02:06:12;20.48;;;10.85;;
77214;SDS011;66210;53.282;9.864;2024-03-08T02:08:41;19.63;;;10.15;;
77214;SDS011;66210;53.282;9.864;2024-03-08T02:11:10;18.88;;;9.48;;
77214;SDS011;66210;53.282;9.864;2024-03-08T02:13:38;19.20;;;9.02;;
77214;SDS011;66210;53.282;9.864;2024-03-08T02:16:05;17.70;;;9.35;;
77214;SDS011;66210;53.282;9.864;2024-03-08T02:18:34;18.00;;;9.63;;
77214;SDS011;66210;53.282;9.864;2024-03-08T02:21:02;21.88;;;10.00;;
77214;SDS011;66210;53.282;9.864;2024-03-08T02:23:30;18.42;;;9.63;;
77214;SDS011;66210;53.282;9.864;2024-03-08T02:25:56;18.65;;;9.15;;
77214;SDS011;66210;53.282;9.864;2024-03-08T02:28:23;20.17;;;9.65;;
77214;SDS011;66210;53.282;9.864;2024-03-08T02:30:52;21.02;;;10.40;;
77214;SDS011;66210;53.282;9.864;2024-03-08T02:33:28;18.67;;;9.70;;
77214;SDS011;66210;53.282;9.864;2024-03-08T02:35:55;17.58;;;10.10;;
77214;SDS011;66210;53.282;9.864;2024-03-08T02:38:23;18.58;;;9.50;;
77214;SDS011;66210;53.282;9.864;2024-03-08T02:40:51;16.48;;;9.23;;
77214;SDS011;66210;53.282;9.864;2024-03-08T02:43:20;18.27;;;9.95;;
77214;SDS011;66210;53.282;9.864;2024-03-08T02:45:51;17.88;;;9.68;;
77214;SDS011;66210;53.282;9.864;2024-03-08T02:48:21;18.13;;;9.63;;
77214;SDS011;66210;53.282;9.864;2024-03-08T02:50:48;20.52;;;10.60;;
77214;SDS011;66210;53.282;9.864;2024-03-08T02:53:18;21.00;;;9.90;;
77214;SDS011;66210;53.282;9.864;2024-03-08T02:55:48;24.83;;;11.02;;
77214;SDS011;66210;53.282;9.864;2024-03-08T02:58:15;19.02;;;10.13;;
77214;SDS011;66210;53.282;9.864;2024-03-08T03:00:42;21.50;;;10.68;;
77214;SDS011;66210;53.282;9.864;2024-03-08T03:03:11;17.33;;;9.73;;
77214;SDS011;66210;53.282;9.864;2024-03-08T03:05:38;20.00;;;10.27;;
77214;SDS011;66210;53.282;9.864;2024-03-08T03:08:11;22.23;;;10.40;;
77214;SDS011;66210;53.282;9.864;2024-03-08T03:10:39;18.80;;;9.95;;
77214;SDS011;66210;53.282;9.864;2024-03-08T03:13:06;19.83;;;10.55;;
77214;SDS011;66210;53.282;9.864;2024-03-08T03:15:33;20.20;;;9.73;;
77214;SDS011;66210;53.282;9.864;2024-03-08T03:18:00;19.65;;;9.25;;
77214;SDS011;66210;53.282;9.864;2024-03-08T03:20:28;22.17;;;10.43;;
77214;SDS011;66210;53.282;9.864;2024-03-08T03:22:59;18.38;;;10.63;;
77214;SDS011;66210;53.282;9.864;2024-03-08T03:25:30;19.05;;;10.55;;
77214;SDS011;66210;53.282;9.864;2024-03-08T03:28:02;21.48;;;11.05;;
77214;SDS011;66210;53.282;9.864;2024-03-08T03:30:29;21.15;;;10.25;;
77214;SDS011;66210;53.282;9.864;2024-03-08T03:33:00;24.95;;;9.93;;
77214;SDS011;66210;53.282;9.864;2024-03-08T03:35:28;19.40;;;9.63;;
77214;SDS011;66210;53.282;9.864;2024-03-08T03:37:58;25.33;;;11.02;;
77214;SDS011;66210;53.282;9.864;2024-03-08T03:40:37;18.15;;;10.25;;
77214;SDS011;66210;53.282;9.864;2024-03-08T03:43:05;22.23;;;10.38;;
77214;SDS011;66210;53.282;9.864;2024-03-08T03:45:32;21.65;;;11.07;;
77214;SDS011;66210;53.282;9.864;2024-03-08T03:48:04;23.50;;;11.20;;
77214;SDS011;66210;53.282;9.864;2024-03-08T03:53:03;24.35;;;10.98;;
77214;SDS011;66210;53.282;9.864;2024-03-08T03:55:31;17.08;;;10.27;;
77214;SDS011;66210;53.282;9.864;2024-03-08T03:57:57;18.98;;;10.25;;
77214;SDS011;66210;53.282;9.864;2024-03-08T04:00:26;23.42;;;12.30;;
77214;SDS011;66210;53.282;9.864;2024-03-08T04:02:54;17.77;;;9.38;;
77214;SDS011;66210;53.282;9.864;2024-03-08T04:05:23;18.48;;;9.75;;
77214;SDS011;66210;53.282;9.864;2024-03-08T04:07:49;19.30;;;10.05;;
77214;SDS011;66210;53.282;9.864;2024-03-08T04:10:16;25.48;;;11.50;;
77214;SDS011;66210;53.282;9.864;2024-03-08T04:12:43;21.52;;;10.82;;
77214;SDS011;66210;53.282;9.864;2024-03-08T04:15:10;22.75;;;11.20;;
77214;SDS011;66210;53.282;9.864;2024-03-08T04:17:38;25.77;;;12.18;;
77214;SDS011;66210;53.282;9.864;2024-03-08T04:20:05;21.00;;;10.68;;
77214;SDS011;66210;53.282;9.864;2024-03-08T04:22:41;23.58;;;10.93;;
77214;SDS011;66210;53.282;9.864;2024-03-08T04:25:10;24.98;;;12.23;;
77214;SDS011;66210;53.282;9.864;2024-03-08T04:27:37;20.83;;;9.75;;
77214;SDS011;66210;53.282;9.864;2024-03-08T04:30:04;24.45;;;11.55;;
77214;SDS011;66210;53.282;9.864;2024-03-08T04:32:34;24.88;;;12.30;;
77214;SDS011;66210;53.282;9.864;2024-03-08T04:35:01;25.08;;;11.48;;
77214;SDS011;66210;53.282;9.864;2024-03-08T04:37:28;27.85;;;12.02;;
77214;SDS011;66210;53.282;9.864;2024-03-08T04:39:56;24.92;;;11.48;;
77214;SDS011;66210;53.282;9.864;2024-03-08T04:42:23;25.40;;;12.23;;
77214;SDS011;66210;53.282;9.864;2024-03-08T04:44:50;23.65;;;12.10;;
77214;SDS011;66210;53.282;9.864;2024-03-08T04:47:18;25.85;;;12.82;;
77214;SDS011;66210;53.282;9.864;2024-03-08T04:49:44;26.95;;;11.38;;
77214;SDS011;66210;53.282;9.864;2024-03-08T04:52:11;25.05;;;12.55;;
77214;SDS011;66210;53.282;9.864;2024-03-08T04:54:38;25.27;;;10.65;;
77214;SDS011;66210;53.282;9.864;2024-03-08T04:57:05;31.23;;;12.38;;
77214;SDS011;66210;53.282;9.864;2024-03-08T04:59:35;23.77;;;12.15;;
77214;SDS011;66210;53.282;9.864;2024-03-08T05:02:02;29.15;;;13.20;;
77214;SDS011;66210;53.282;9.864;2024-03-08T05:04:29;25.65;;;12.10;;
77214;SDS011;66210;53.282;9.864;2024-03-08T05:06:56;24.27;;;11.98;;
77214;SDS011;66210;53.282;9.864;2024-03-08T05:09:23;21.50;;;11.95;;
77214;SDS011;66210;53.282;9.864;2024-03-08T05:11:50;28.70;;;12.35;;
77214;SDS011;66210;53.282;9.864;2024-03-08T05:14:17;28.30;;;13.25;;
77214;SDS011;66210;53.282;9.864;2024-03-08T05:16:44;28.70;;;13.68;;
77214;SDS011;66210;53.282;9.864;2024-03-08T05:19:17;24.83;;;13.02;;
77214;SDS011;66210;53.282;9.864;2024-03-08T05:21:45;29.63;;;12.35;;
77214;SDS011;66210;53.282;9.864;2024-03-08T05:24:12;25.58;;;12.38;;
77214;SDS011;66210;53.282;9.864;2024-03-08T05:26:41;23.02;;;11.57;;
77214;SDS011;66210;53.282;9.864;2024-03-08T05:29:08;26.73;;;12.63;;
77214;SDS011;66210;53.282;9.864;2024-03-08T05:31:41;24.70;;;12.70;;
77214;SDS011;66210;53.282;9.864;2024-03-08T05:34:13;27.10;;;13.00;;
77214;SDS011;66210;53.282;9.864;2024-03-08T05:36:41;30.70;;;14.40;;
77214;SDS011;66210;53.282;9.864;2024-03-08T05:39:11;27.75;;;13.18;;
77214;SDS011;66210;53.282;9.864;2024-03-08T05:41:38;34.88;;;14.77;;
77214;SDS011;66210;53.282;9.864;2024-03-08T05:44:07;30.05;;;13.77;;
77214;SDS011;66210;53.282;9.864;2024-03-08T05:46:34;26.92;;;13.45;;
77214;SDS011;66210;53.282;9.864;2024-03-08T05:51:36;24.95;;;11.95;;
77214;SDS011;66210;53.282;9.864;2024-03-08T05:54:03;25.08;;;11.70;;
77214;SDS011;66210;53.282;9.864;2024-03-08T05:56:37;29.98;;;12.35;;
77214;SDS011;66210;53.282;9.864;2024-03-08T05:59:04;26.90;;;12.60;;
77214;SDS011;66210;53.282;9.864;2024-03-08T06:01:31;23.95;;;12.00;;
77214;SDS011;66210;53.282;9.864;2024-03-08T06:03:57;27.20;;;13.50;;
77214;SDS011;66210;53.282;9.864;2024-03-08T06:06:24;27.05;;;13.75;;
77214;SDS011;66210;53.282;9.864;2024-03-08T06:08:52;32.45;;;14.75;;
77214;SDS011;66210;53.282;9.864;2024-03-08T06:11:19;30.08;;;13.82;;
77214;SDS011;66210;53.282;9.864;2024-03-08T06:13:47;27.63;;;14.32;;
77214;SDS011;66210;53.282;9.864;2024-03-08T06:16:13;26.05;;;13.15;;
77214;SDS011;66210;53.282;9.864;2024-03-08T06:18:40;30.48;;;13.07;;
77214;SDS011;66210;53.282;9.864;2024-03-08T06:21:08;29.65;;;14.77;;
77214;SDS011;66210;53.282;9.864;2024-03-08T06:23:39;31.58;;;14.75;;
77214;SDS011;66210;53.282;9.864;2024-03-08T06:26:06;32.05;;;14.32;;
77214;SDS011;66210;53.282;9.864;2024-03-08T06:28:33;31.33;;;14.55;;
77214;SDS011;66210;53.282;9.864;2024-03-08T06:31:01;40.75;;;15.05;;
77214;SDS011;66210;53.282;9.864;2024-03-08T06:33:29;31.83;;;14.68;;
77214;SDS011;66210;53.282;9.864;2024-03-08T06:35:57;33.22;;;14.73;;
77214;SDS011;66210;53.282;9.864;2024-03-08T06:38:24;30.67;;;15.35;;
77214;SDS011;66210;53.282;9.864;2024-03-08T06:40:51;32.55;;;15.23;;
77214;SDS011;66210;53.282;9.864;2024-03-08T06:43:18;39.05;;;16.20;;
77214;SDS011;66210;53.282;9.864;2024-03-08T06:45:45;37.83;;;15.57;;
77214;SDS011;66210;53.282;9.864;2024-03-08T06:48:18;32.58;;;15.52;;
77214;SDS011;66210;53.282;9.864;2024-03-08T06:50:46;31.20;;;14.60;;
77214;SDS011;66210;53.282;9.864;2024-03-08T06:53:14;32.95;;;15.70;;
77214;SDS011;66210;53.282;9.864;2024-03-08T06:55:43;29.92;;;14.80;;
77214;SDS011;66210;53.282;9.864;2024-03-08T06:58:11;32.60;;;13.93;;
77214;SDS011;66210;53.282;9.864;2024-03-08T07:00:37;32.22;;;15.68;;
77214;SDS011;66210;53.282;9.864;2024-03-08T07:03:07;27.23;;;14.63;;
77214;SDS011;66210;53.282;9.864;2024-03-08T07:05:34;32.05;;;14.40;;
77214;SDS011;66210;53.282;9.864;2024-03-08T07:08:01;29.05;;;14.18;;
77214;SDS011;66210;53.282;9.864;2024-03-08T07:10:28;30.20;;;13.70;;
77214;SDS011;66210;53.282;9.864;2024-03-08T07:12:55;30.20;;;14.60;;
77214;SDS011;66210;53.282;9.864;2024-03-08T07:15:21;31.08;;;13.48;;
77214;SDS011;66210;53.282;9.864;2024-03-08T07:17:49;30.05;;;14.50;;
77214;SDS011;66210;53.282;9.864;2024-03-08T07:20:19;25.83;;;13.32;;
77214;SDS011;66210;53.282;9.864;2024-03-08T07:22:46;31.63;;;14.05;;
77214;SDS011;66210;53.282;9.864;2024-03-08T07:25:14;34.10;;;14.25;;
77214;SDS011;66210;53.282;9.864;2024-03-08T07:27:55;32.03;;;13.73;;
77214;SDS011;66210;53.282;9.864;2024-03-08T07:30:23;23.42;;;12.50;;
77214;SDS011;66210;53.282;9.864;2024-03-08T07:33:12;25.65;;;13.90;;
77214;SDS011;66210;53.282;9.864;2024-03-08T07:35:40;27.08;;;12.98;;
77214;SDS011;66210;53.282;9.864;2024-03-08T07:38:08;27.70;;;12.88;;
77214;SDS011;66210;53.282;9.864;2024-03-08T07:40:38;27.23;;;13.73;;
77214;SDS011;66210;53.282;9.864;2024-03-08T07:43:07;29.00;;;13.68;;
77214;SDS011;66210;53.282;9.864;2024-03-08T07:45:34;25.23;;;12.23;;
77214;SDS011;66210;53.282;9.864;2024-03-08T07:48:02;31.98;;;13.13;;
77214;SDS011;66210;53.282;9.864;2024-03-08T07:50:30;26.80;;;13.63;;
77214;SDS011;66210;53.282;9.864;2024-03-08T07:52:57;27.73;;;13.98;;
77214;SDS011;66210;53.282;9.864;2024-03-08T07:55:23;26.42;;;13.07;;
77214;SDS011;66210;53.282;9.864;2024-03-08T07:57:50;29.00;;;13.43;;
77214;SDS011;66210;53.282;9.864;2024-03-08T08:00:17;29.85;;;13.77;;
77214;SDS011;66210;53.282;9.864;2024-03-08T08:02:45;28.42;;;12.85;;
77214;SDS011;66210;53.282;9.864;2024-03-08T08:05:15;32.50;;;14.45;;
77214;SDS011;66210;53.282;9.864;2024-03-08T08:07:44;24.73;;;13.32;;
77214;SDS011;66210;53.282;9.864;2024-03-08T08:10:15;27.38;;;13.55;;
77214;SDS011;66210;53.282;9.864;2024-03-08T08:12:48;25.83;;;14.20;;
77214;SDS011;66210;53.282;9.864;2024-03-08T08:15:15;28.73;;;14.27;;
77214;SDS011;66210;53.282;9.864;2024-03-08T08:17:42;25.63;;;13.93;;
77214;SDS011;66210;53.282;9.864;2024-03-08T08:20:09;29.02;;;13.73;;
77214;SDS011;66210;53.282;9.864;2024-03-08T08:22:38;26.50;;;13.63;;
77214;SDS011;66210;53.282;9.864;2024-03-08T08:25:07;32.00;;;13.57;;
77214;SDS011;66210;53.282;9.864;2024-03-08T08:27:34;28.15;;;14.00;;
77214;SDS011;66210;53.282;9.864;2024-03-08T08:30:03;26.00;;;14.10;;
77214;SDS011;66210;53.282;9.864;2024-03-08T08:32:34;29.83;;;14.48;;
77214;SDS011;66210;53.282;9.864;2024-03-08T08:35:05;30.52;;;13.82;;
77214;SDS011;66210;53.282;9.864;2024-03-08T08:37:32;25.73;;;12.63;;
77214;SDS011;66210;53.282;9.864;2024-03-08T08:40:00;27.67;;;12.30;;
77214;SDS011;66210;53.282;9.864;2024-03-08T08:42:32;25.90;;;13.98;;
77214;SDS011;66210;53.282;9.864;2024-03-08T08:44:58;24.08;;;13.15;;
77214;SDS011;66210;53.282;9.864;2024-03-08T08:47:34;25.23;;;13.35;;
77214;SDS011;66210;53.282;9.864;2024-03-08T08:50:02;30.10;;;14.65;;
77214;SDS011;66210;53.282;9.864;2024-03-08T08:52:31;31.08;;;13.30;;
77214;SDS011;66210;53.282;9.864;2024-03-08T08:54:58;31.38;;;14.77;;
77214;SDS011;66210;53.282;9.864;2024-03-08T08:57:25;32.78;;;14.75;;
77214;SDS011;66210;53.282;9.864;2024-03-08T08:59:52;29.60;;;14.15;;
77214;SDS011;66210;53.282;9.864;2024-03-08T09:02:19;28.02;;;14.50;;
77214;SDS011;66210;53.282;9.864;2024-03-08T09:04:47;31.98;;;13.35;;
77214;SDS011;66210;53.282;9.864;2024-03-08T09:07:17;31.38;;;14.52;;
77214;SDS011;66210;53.282;9.864;2024-03-08T09:09:45;28.75;;;14.48;;
77214;SDS011;66210;53.282;9.864;2024-03-08T09:12:11;24.55;;;13.48;;
77214;SDS011;66210;53.282;9.864;2024-03-08T09:14:40;28.67;;;14.10;;
77214;SDS011;66210;53.282;9.864;2024-03-08T09:17:07;25.05;;;12.90;;
77214;SDS011;66210;53.282;9.864;2024-03-08T09:19:37;27.70;;;15.65;;
77214;SDS011;66210;53.282;9.864;2024-03-08T09:22:04;30.48;;;14.15;;
77214;SDS011;66210;53.282;9.864;2024-03-08T09:24:31;29.88;;;13.27;;
77214;SDS011;66210;53.282;9.864;2024-03-08T09:26:57;25.38;;;13.60;;
77214;SDS011;66210;53.282;9.864;2024-03-08T09:29:27;26.58;;;14.38;;
77214;SDS011;66210;53.282;9.864;2024-03-08T09:31:55;25.58;;;13.98;;
77214;SDS011;66210;53.282;9.864;2024-03-08T09:34:22;25.17;;;12.20;;
77214;SDS011;66210;53.282;9.864;2024-03-08T09:36:58;29.05;;;14.48;;
77214;SDS011;66210;53.282;9.864;2024-03-08T09:39:24;26.15;;;13.90;;
77214;SDS011;66210;53.282;9.864;2024-03-08T09:41:53;25.08;;;13.45;;
77214;SDS011;66210;53.282;9.864;2024-03-08T09:44:22;28.10;;;14.38;;
77214;SDS011;66210;53.282;9.864;2024-03-08T09:46:53;25.83;;;13.77;;
77214;SDS011;66210;53.282;9.864;2024-03-08T09:49:20;24.88;;;13.82;;
77214;SDS011;66210;53.282;9.864;2024-03-08T09:51:47;25.95;;;14.93;;
77214;SDS011;66210;53.282;9.864;2024-03-08T09:54:15;31.38;;;13.93;;
77214;SDS011;66210;53.282;9.864;2024-03-08T09:56:49;25.60;;;14.15;;
77214;SDS011;66210;53.282;9.864;2024-03-08T09:59:17;27.02;;;14.25;;
77214;SDS011;66210;53.282;9.864;2024-03-08T10:01:53;26.42;;;14.13;;
77214;SDS011;66210;53.282;9.864;2024-03-08T10:04:22;26.98;;;14.35;;
77214;SDS011;66210;53.282;9.864;2024-03-08T10:06:49;26.15;;;13.27;;
77214;SDS011;66210;53.282;9.864;2024-03-08T10:09:16;36.28;;;14.73;;
77214;SDS011;66210;53.282;9.864;2024-03-08T10:11:43;32.42;;;14.25;;
77214;SDS011;66210;53.282;9.864;2024-03-08T10:14:10;24.30;;;13.68;;
77214;SDS011;66210;53.282;9.864;2024-03-08T10:16:38;24.83;;;14.32;;
77214;SDS011;66210;53.282;9.864;2024-03-08T10:19:05;28.38;;;13.57;;
77214;SDS011;66210;53.282;9.864;2024-03-08T10:21:33;26.98;;;13.07;;
77214;SDS011;66210;53.282;9.864;2024-03-08T10:23:59;27.20;;;13.77;;
77214;SDS011;66210;53.282;9.864;2024-03-08T10:26:29;24.30;;;13.60;;
77214;SDS011;66210;53.282;9.864;2024-03-08T10:28:57;24.52;;;13.10;;
77214;SDS011;66210;53.282;9.864;2024-03-08T10:31:24;31.15;;;14.30;;
77214;SDS011;66210;53.282;9.864;2024-03-08T10:33:52;27.13;;;13.95;;
77214;SDS011;66210;53.282;9.864;2024-03-08T10:36:18;26.85;;;14.35;;
77214;SDS011;66210;53.282;9.864;2024-03-08T10:38:46;25.92;;;13.32;;
77214;SDS011;66210;53.282;9.864;2024-03-08T10:41:15;25.30;;;13.95;;
77214;SDS011;66210;53.282;9.864;2024-03-08T10:44:04;24.38;;;13.90;;
77214;SDS011;66210;53.282;9.864;2024-03-08T10:52:31;24.42;;;13.15;;
77214;SDS011;66210;53.282;9.864;2024-03-08T10:54:59;26.83;;;12.90;;
77214;SDS011;66210;53.282;9.864;2024-03-08T10:57:28;22.48;;;12.70;;
77214;SDS011;66210;53.282;9.864;2024-03-08T10:59:55;25.95;;;13.25;;
77214;SDS011;66210;53.282;9.864;2024-03-08T11:02:25;29.25;;;13.20;;
77214;SDS011;66210;53.282;9.864;2024-03-08T11:04:54;27.17;;;12.25;;
77214;SDS011;66210;53.282;9.864;2024-03-08T11:07:23;21.35;;;11.75;;
77214;SDS011;66210;53.282;9.864;2024-03-08T11:09:54;24.52;;;13.00;;
77214;SDS011;66210;53.282;9.864;2024-03-08T11:12:26;22.85;;;11.93;;
77214;SDS011;66210;53.282;9.864;2024-03-08T11:14:59;24.42;;;13.95;;
77214;SDS011;66210;53.282;9.864;2024-03-08T11:19:57;25.25;;;12.63;;
77214;SDS011;66210;53.282;9.864;2024-03-08T11:22:28;21.08;;;12.70;;
77214;SDS011;66210;53.282;9.864;2024-03-08T11:25:03;22.40;;;12.15;;
77214;SDS011;66210;53.282;9.864;2024-03-08T11:27:37;24.77;;;12.32;;
77214;SDS011;66210;53.282;9.864;2024-03-08T11:30:06;25.67;;;13.15;;
77214;SDS011;66210;53.282;9.864;2024-03-08T11:32:50;20.80;;;11.70;;
77214;SDS011;66210;53.282;9.864;2024-03-08T11:35:20;24.92;;;13.20;;
77214;SDS011;66210;53.282;9.864;2024-03-08T11:37:48;22.58;;;13.20;;
77214;SDS011;66210;53.282;9.864;2024-03-08T11:40:15;22.48;;;11.82;;
77214;SDS011;66210;53.282;9.864;2024-03-08T11:42:46;22.60;;;12.15;;
77214;SDS011;66210;53.282;9.864;2024-03-08T11:45:17;21.95;;;11.23;;
77214;SDS011;66210;53.282;9.864;2024-03-08T11:47:48;24.65;;;11.95;;
77214;SDS011;66210;53.282;9.864;2024-03-08T11:50:16;23.25;;;11.82;;
77214;SDS011;66210;53.282;9.864;2024-03-08T11:52:46;20.90;;;11.77;;
77214;SDS011;66210;53.282;9.864;2024-03-08T11:55:13;21.92;;;11.50;;
77214;SDS011;66210;53.282;9.864;2024-03-08T11:57:40;24.00;;;11.70;;
77214;SDS011;66210;53.282;9.864;2024-03-08T12:00:14;24.35;;;12.43;;
77214;SDS011;66210;53.282;9.864;2024-03-08T12:03:00;28.67;;;11.73;;
77214;SDS011;66210;53.282;9.864;2024-03-08T12:05:28;19.98;;;10.90;;
77214;SDS011;66210;53.282;9.864;2024-03-08T12:07:56;19.17;;;10.82;;
77214;SDS011;66210;53.282;9.864;2024-03-08T12:10:33;21.40;;;11.45;;
77214;SDS011;66210;53.282;9.864;2024-03-08T12:13:01;25.08;;;11.05;;
77214;SDS011;66210;53.282;9.864;2024-03-08T12:15:30;23.23;;;11.45;;
77214;SDS011;66210;53.282;9.864;2024-03-08T12:17:59;23.90;;;12.30;;
77214;SDS011;66210;53.282;9.864;2024-03-08T12:20:27;19.45;;;11.20;;
77214;SDS011;66210;53.282;9.864;2024-03-08T12:22:58;21.15;;;11.63;;
77214;SDS011;66210;53.282;9.864;2024-03-08T12:25:26;23.48;;;12.32;;
77214;SDS011;66210;53.282;9.864;2024-03-08T12:28:06;19.13;;;11.73;;
77214;SDS011;66210;53.282;9.864;2024-03-08T12:30:50;20.65;;;11.15;;
77214;SDS011;66210;53.282;9.864;2024-03-08T12:33:20;19.50;;;11.52;;
77214;SDS011;66210;53.282;9.864;2024-03-08T12:35:50;29.95;;;12.27;;
77214;SDS011;66210;53.282;9.864;2024-03-08T12:38:22;22.10;;;11.52;;
77214;SDS011;66210;53.282;9.864;2024-03-08T12:40:55;21.83;;;11.38;;
77214;SDS011;66210;53.282;9.864;2024-03-08T12:43:23;22.35;;;12.40;;
77214;SDS011;66210;53.282;9.864;2024-03-08T12:45:50;21.20;;;11.30;;
77214;SDS011;66210;53.282;9.864;2024-03-08T12:48:17;22.83;;;10.45;;
77214;SDS011;66210;53.282;9.864;2024-03-08T12:50:45;26.73;;;10.02;;
77214;SDS011;66210;53.282;9.864;2024-03-08T12:53:14;20.88;;;11.23;;
77214;SDS011;66210;53.282;9.864;2024-03-08T12:55:40;18.58;;;11.35;;
77214;SDS011;66210;53.282;9.864;2024-03-08T12:58:07;22.27;;;11.30;;
77214;SDS011;66210;53.282;9.864;2024-03-08T13:00:34;22.33;;;11.48;;
77214;SDS011;66210;53.282;9.864;2024-03-08T13:03:03;21.58;;;12.10;;
77214;SDS011;66210;53.282;9.864;2024-03-08T13:05:29;24.63;;;11.25;;
77214;SDS011;66210;53.282;9.864;2024-03-08T13:07:56;18.92;;;10.82;;
77214;SDS011;66210;53.282;9.864;2024-03-08T13:10:23;17.90;;;10.45;;
77214;SDS011;66210;53.282;9.864;2024-03-08T13:12:50;14.82;;;8.90;;
77214;SDS011;66210;53.282;9.864;2024-03-08T13:17:47;17.17;;;10.75;;
77214;SDS011;66210;53.282;9.864;2024-03-08T13:20:15;19.42;;;10.43;;
77214;SDS011;66210;53.282;9.864;2024-03-08T13:22:56;18.95;;;10.57;;
77214;SDS011;66210;53.282;9.864;2024-03-08T13:25:25;17.27;;;10.15;;
77214;SDS011;66210;53.282;9.864;2024-03-08T13:27:52;18.20;;;9.57;;
77214;SDS011;66210;53.282;9.864;2024-03-08T13:30:20;17.65;;;10.40;;
77214;SDS011;66210;53.282;9.864;2024-03-08T13:32:51;20.13;;;10.70;;
77214;SDS011;66210;53.282;9.864;2024-03-08T13:35:19;18.45;;;9.90;;
77214;SDS011;66210;53.282;9.864;2024-03-08T13:37:51;20.77;;;9.98;;
77214;SDS011;66210;53.282;9.864;2024-03-08T13:40:17;17.55;;;10.32;;
77214;SDS011;66210;53.282;9.864;2024-03-08T13:42:47;16.20;;;10.18;;
77214;SDS011;66210;53.282;9.864;2024-03-08T13:45:15;19.83;;;9.27;;
77214;SDS011;66210;53.282;9.864;2024-03-08T13:47:48;25.05;;;10.70;;
77214;SDS011;66210;53.282;9.864;2024-03-08T13:50:15;16.45;;;9.98;;
77214;SDS011;66210;53.282;9.864;2024-03-08T13:52:49;18.13;;;9.90;;
77214;SDS011;66210;53.282;9.864;2024-03-08T13:55:22;17.80;;;10.40;;
77214;SDS011;66210;53.282;9.864;2024-03-08T13:57:50;23.33;;;11.05;;
77214;SDS011;66210;53.282;9.864;2024-03-08T14:00:18;20.45;;;11.25;;
77214;SDS011;66210;53.282;9.864;2024-03-08T14:02:48;19.08;;;10.73;;
77214;SDS011;66210;53.282;9.864;2024-03-08T14:05:15;22.85;;;10.27;;
77214;SDS011;66210;53.282;9.864;2024-03-08T14:07:42;22.00;;;11.23;;
77214;SDS011;66210;53.282;9.864;2024-03-08T14:10:12;18.73;;;11.27;;
77214;SDS011;66210;53.282;9.864;2024-03-08T14:12:39;21.80;;;10.80;;
77214;SDS011;66210;53.282;9.864;2024-03-08T14:15:06;18.40;;;10.10;;
77214;SDS011;66210;53.282;9.864;2024-03-08T14:17:33;20.20;;;10.38;;
77214;SDS011;66210;53.282;9.864;2024-03-08T14:19:59;19.92;;;10.77;;
77214;SDS011;66210;53.282;9.864;2024-03-08T14:22:26;20.88;;;10.55;;
77214;SDS011;66210;53.282;9.864;2024-03-08T14:24:53;23.98;;;11.70;;
77214;SDS011;66210;53.282;9.864;2024-03-08T14:27:22;19.10;;;10.00;;
77214;SDS011;66210;53.282;9.864;2024-03-08T14:29:49;20.33;;;11.32;;
77214;SDS011;66210;53.282;9.864;2024-03-08T14:32:15;24.30;;;10.35;;
77214;SDS011;66210;53.282;9.864;2024-03-08T14:34:45;17.80;;;10.13;;
77214;SDS011;66210;53.282;9.864;2024-03-08T14:37:12;20.40;;;10.80;;
77214;SDS011;66210;53.282;9.864;2024-03-08T14:39:40;19.67;;;10.80;;
77214;SDS011;66210;53.282;9.864;2024-03-08T14:42:07;21.35;;;10.95;;
77214;SDS011;66210;53.282;9.864;2024-03-08T14:44:34;18.50;;;9.35;;
77214;SDS011;66210;53.282;9.864;2024-03-08T14:47:02;20.17;;;10.88;;